WetterOnline ( https://www.wetteronline.de )

Wetter aktuell Bamberg

Aktuelles Wetter: Bamberg (243m)

6-stündlich | Neueste Meldungen
Ortszeit Temperatur Wetter
Mi, 29.06. 20:00 23.0° C wolkig
Mi, 29.06. 14:00 26.3° C wolkig
Mi, 29.06. 8:00 21.3° C wolkig
Mi, 29.06. 2:00 18.3° C bedeckt
Di, 28.06. 20:00 25.2° C bewölkt
Di, 28.06. 14:00 25.0° C leicht bewölkt
Di, 28.06. 8:00 17.6° C wolkenlos
Di, 28.06. 2:00 17.4° C wolkig
Ortszeit Temperatur Wetter
Mi, 29.06. 21:00 22.0° C wolkig
Mi, 29.06. 20:50 22.0° C wolkig
Mi, 29.06. 20:40 22.2° C bewölkt
Mi, 29.06. 20:30 22.5° C bewölkt
Mi, 29.06. 20:20 22.5° C bewölkt
Mi, 29.06. 20:10 23.0° C bewölkt
Mi, 29.06. 20:00 23.0° C wolkig
Mi, 29.06. 19:30 24.2° C bewölkt
Mi, 29.06. 19:00 24.9° C wolkig
Mi, 29.06. 18:30 24.7° C bewölkt
Mi, 29.06. 18:00 26.7° C wolkig
Ortszeit Relative Feuchte Sichtweite
Mi, 29.06. 20:00 72% 45 km
Mi, 29.06. 14:00 56% 50 km
Mi, 29.06. 8:00 64% 50 km
Mi, 29.06. 2:00 72% 50 km
Di, 28.06. 20:00 46% 60 km
Di, 28.06. 14:00 31% 55 km
Di, 28.06. 8:00 76% >70 km
Di, 28.06. 2:00 87% 45 km
Ortszeit Relative Feuchte Sichtweite
Mi, 29.06. 21:00 78% 45 km
Mi, 29.06. 20:50 78% -
Mi, 29.06. 20:40 77% -
Mi, 29.06. 20:30 74% 50 km
Mi, 29.06. 20:20 74% -
Mi, 29.06. 20:10 74% -
Mi, 29.06. 20:00 72% 45 km
Mi, 29.06. 19:30 65% 45 km
Mi, 29.06. 19:00 64% 35 km
Mi, 29.06. 18:30 63% 40 km
Mi, 29.06. 18:00 54% 50 km
Ortszeit Niederschlagsmenge Niederschlagsart
Mi, 29.06. 20:00 0.0 l/m2 in 12 Std. -
Mi, 29.06. 14:00 0.0 l/m2 in 6 Std. -
Mi, 29.06. 8:00 0.1 l/m2 in 12 Std. Regen
Mi, 29.06. 2:00 0.0 l/m2 in 6 Std. -
Di, 28.06. 20:00 0.0 l/m2 in 12 Std. -
Di, 28.06. 14:00 0.0 l/m2 in 6 Std. -
Di, 28.06. 8:00 1 l/m2 in 12 Std. -
Di, 28.06. 2:00 1 l/m2 in 6 Std. Regen
Ortszeit Niederschlagsmenge Niederschlagsart
Mi, 29.06. 21:00 0.0 l/m2 in 1 Std. -
Mi, 29.06. 20:50 keine Meldung -
Mi, 29.06. 20:40 keine Meldung -
Mi, 29.06. 20:30 0.0 l/m2 in 1 Std. -
Mi, 29.06. 20:20 keine Meldung -
Mi, 29.06. 20:10 keine Meldung -
Mi, 29.06. 20:00 0.0 l/m2 in 1 Std. -
Mi, 29.06. 19:30 0.0 l/m2 in 1 Std. -
Mi, 29.06. 19:00 0.0 l/m2 in 1 Std. -
Mi, 29.06. 18:30 0.0 l/m2 in 1 Std. -
Mi, 29.06. 18:00 0.0 l/m2 in 1 Std. -
Ortszeit Stärke Spitze Richtung
km/h Bft. km/h Grad Sektor
Mi, 29.06. 20:00 4 1 22 340° N
Mi, 29.06. 14:00 11 2 22 140° SO
Mi, 29.06. 8:00 4 1 14 20° N
Mi, 29.06. 2:00 4 1 14 300° NW
Di, 28.06. 20:00 7 2 29 140° SO
Di, 28.06. 14:00 7 2 29 10° N
Di, 28.06. 8:00 6 1 13 350° N
Di, 28.06. 2:00 4 1 25 280° W
Ortszeit Stärke Spitze Richtung
km/h Bft. km/h Grad Sektor
Mi, 29.06. 21:00 4 1 22 360° N
Mi, 29.06. 20:50 4 1 - 360° N
Mi, 29.06. 20:40 4 1 - 290° W
Mi, 29.06. 20:30 9 2 22 260° W
Mi, 29.06. 20:20 9 2 - 260° W
Mi, 29.06. 20:10 4 1 - 310° NW
Mi, 29.06. 20:00 4 1 22 340° N
Mi, 29.06. 19:30 11 2 22 20° N
Mi, 29.06. 19:00 11 2 22 30° NO
Mi, 29.06. 18:30 9 2 22 350° N
Mi, 29.06. 18:00 6 1 20 220° SW
Ortszeit Untergrenze Bedeckung Gattung
total tief tief mittel hoch
Mi, 29.06. 20:00 4500 m 7/8 1/8 - - -
Mi, 29.06. 14:00 1800 m 5/8 5/8 - - -
Mi, 29.06. 8:00 1800 m 7/8 1/8 - - -
Mi, 29.06. 2:00 3900 m 8/8 8/8 - - -
Di, 28.06. 20:00 2100 m 7/8 7/8 - - -
Di, 28.06. 14:00 9000 m 3/8 0/8 - - -
Di, 28.06. 8:00 - 0/8 0/8 - - -
Di, 28.06. 2:00 2100 m 8/8 1/8 - - -
Ortszeit Bedeckungsgrad in Achtel und Wolkenuntergrenze
Mi, 29.06. 21:00 1(1800m) 7(5100m) 8(6300m)
Mi, 29.06. 20:50 1(1800m) 7(5100m) 8(6300m)
Mi, 29.06. 20:40 7
Mi, 29.06. 20:30 6(1380m) 7(2100m) 7(7800m)
Mi, 29.06. 20:20 6(1380m) 7(2100m) 7(7800m)
Mi, 29.06. 20:10 7
Mi, 29.06. 20:00 1(4500m) 6(9000m) 7(9000m)
Mi, 29.06. 19:30 3(1500m) 6(2100m) 8(4500m)
Mi, 29.06. 19:00 1(1500m) 8(3900m)
Mi, 29.06. 18:30 4(1440m) 6(1500m) 8(4500m)
Mi, 29.06. 18:00 1(1500m) 8(4800m) 8(5100m)
Ortszeit Luftdruck NN (hPa) Tendenz (hPa in 3 Std.)
Mi, 29.06. 20:00 1011 - 0,1
Mi, 29.06. 14:00 1012 - 0,7
Mi, 29.06. 8:00 1014 - 0,4
Mi, 29.06. 2:00 1015 - 1,3
Di, 28.06. 20:00 1016 - 1,7
Di, 28.06. 14:00 1020 - 1,7
Di, 28.06. 8:00 1022 + 0,6
Di, 28.06. 2:00 1021 + 1,3
Ortszeit Luftdruck NN (hPa) Tendenz (hPa in 3 Std.)
Mi, 29.06. 21:00 1012 + 0,4
Mi, 29.06. 20:50 1012 keine Meldung
Mi, 29.06. 20:40 1012 keine Meldung
Mi, 29.06. 20:30 1012 + 0,5
Mi, 29.06. 20:20 1012 keine Meldung
Mi, 29.06. 20:10 1012 keine Meldung
Mi, 29.06. 20:00 1011 - 0,1
Mi, 29.06. 19:30 1011 - 0,2
Mi, 29.06. 19:00 1011 - 0,4
Mi, 29.06. 18:30 1011 - 0,4
Mi, 29.06. 18:00 1011 - 1,0
Ortszeit Schneehöhe (cm)
Mi, 29.06. 20:00 0
Mi, 29.06. 14:00 0
Mi, 29.06. 8:00 0
Mi, 29.06. 2:00 0
Di, 28.06. 20:00 0
Di, 28.06. 14:00 0
Di, 28.06. 8:00 0
Di, 28.06. 2:00 0
Ortszeit Schneehöhe (cm)
Mi, 29.06. 21:00 0
Mi, 29.06. 20:50 0
Mi, 29.06. 20:40 0
Mi, 29.06. 20:30 0
Mi, 29.06. 20:20 0
Mi, 29.06. 20:10 0
Mi, 29.06. 20:00 0
Mi, 29.06. 19:30 0
Mi, 29.06. 19:00 0
Mi, 29.06. 18:30 0
Mi, 29.06. 18:00 0
Link zu dieser Seite / Seite empfehlen

Das Wetter in ...